WRC744 UKBB-LYTV
Flight info
| Callsign | WRC744 |
|---|---|
| Flight time | N/A |
| Altitude | 34000 |
| Route | KAFEL N164 BAMUD/N0451F340 DCT VAMES DCT ELROM DCT BUKAN DCT OLMIP DCT DIRER DCT XENIT DCT NANER DCT MODRA DCT MOJ DCT POD |
| Aircraft | A321/M-SDE3FGHIRWY/LB1 |
Departure
| Time | 2026-04-29 06:35 |
|---|---|
| Airport | Boryspil International Airport (UKBB) |
Arrival
| Time | N/A |
|---|---|
| Airport | Tivat Airport (LYTV) |
| Time | Latitude | Longitude | Altitude | Speed | Heading |
|---|---|---|---|---|---|
| 2026-04-29 05:58 | 50.35119 | 30.90130 | 409 ft | 0 kts | 93° |
| 2026-04-29 05:59 | 50.35119 | 30.90137 | 411 ft | 0 kts | 93° |
| 2026-04-29 06:24 | 50.35120 | 30.90120 | 412 ft | 4 kts | 95° |
| 2026-04-29 06:24 | 50.35124 | 30.90079 | 407 ft | 4 kts | 105° |
| 2026-04-29 06:24 | 50.35133 | 30.90040 | 406 ft | 4 kts | 124° |
| 2026-04-29 06:24 | 50.35151 | 30.90015 | 406 ft | 4 kts | 176° |
| 2026-04-29 06:25 | 50.35159 | 30.90015 | 408 ft | 0 kts | 182° |
| 2026-04-29 06:28 | 50.35141 | 30.90013 | 408 ft | 8 kts | 183° |
| 2026-04-29 06:28 | 50.35032 | 30.90003 | 415 ft | 19 kts | 182° |
| 2026-04-29 06:28 | 50.34921 | 30.90017 | 415 ft | 15 kts | 154° |
| 2026-04-29 06:28 | 50.34890 | 30.90148 | 415 ft | 13 kts | 92° |
| 2026-04-29 06:29 | 50.34839 | 30.90231 | 412 ft | 12 kts | 170° |
| 2026-04-29 06:29 | 50.34726 | 30.90225 | 415 ft | 21 kts | 182° |
| 2026-04-29 06:29 | 50.34552 | 30.90213 | 411 ft | 29 kts | 182° |
| 2026-04-29 06:29 | 50.34335 | 30.90197 | 415 ft | 32 kts | 182° |
| 2026-04-29 06:30 | 50.34119 | 30.90181 | 412 ft | 30 kts | 182° |
| 2026-04-29 06:30 | 50.33713 | 30.90151 | 415 ft | 28 kts | 182° |
| 2026-04-29 06:30 | 50.33524 | 30.90137 | 416 ft | 27 kts | 182° |
| 2026-04-29 06:31 | 50.33343 | 30.90124 | 411 ft | 25 kts | 182° |
| 2026-04-29 06:31 | 50.33171 | 30.90111 | 415 ft | 24 kts | 182° |
| 2026-04-29 06:31 | 50.33008 | 30.90099 | 416 ft | 23 kts | 183° |
| 2026-04-29 06:31 | 50.32854 | 30.90088 | 415 ft | 22 kts | 182° |
| 2026-04-29 06:32 | 50.32708 | 30.90077 | 413 ft | 20 kts | 182° |
| 2026-04-29 06:32 | 50.32572 | 30.90068 | 409 ft | 17 kts | 182° |
| 2026-04-29 06:32 | 50.32484 | 30.90096 | 411 ft | 12 kts | 147° |
| 2026-04-29 06:32 | 50.32445 | 30.90184 | 411 ft | 8 kts | 105° |
| 2026-04-29 06:33 | 50.32445 | 30.90242 | 415 ft | 3 kts | 80° |
| 2026-04-29 06:33 | 50.32454 | 30.90281 | 416 ft | 4 kts | 65° |
| 2026-04-29 06:33 | 50.32461 | 30.90299 | 411 ft | 2 kts | 57° |
| 2026-04-29 06:33 | 50.32476 | 30.90332 | 419 ft | 6 kts | 54° |
| 2026-04-29 06:34 | 50.32498 | 30.90374 | 420 ft | 6 kts | 41° |
| 2026-04-29 06:34 | 50.32585 | 30.90392 | 424 ft | 23 kts | 3° |
| 2026-04-29 06:34 | 50.32982 | 30.90421 | 420 ft | 92 kts | 3° |
| 2026-04-29 06:34 | 50.33821 | 30.90482 | 421 ft | 147 kts | 2° |
| 2026-04-29 06:35 | 50.34968 | 30.90572 | 688 ft | 166 kts | 1° |
| 2026-04-29 06:35 | 50.36083 | 30.90724 | 1518 ft | 160 kts | 3° |
| 2026-04-29 06:35 | 50.37201 | 30.90897 | 2187 ft | 163 kts | 2° |
| 2026-04-29 06:35 | 50.38366 | 30.91068 | 2536 ft | 179 kts | 1° |
| 2026-04-29 06:36 | 50.39690 | 30.91175 | 2770 ft | 202 kts | 360° |
| 2026-04-29 06:36 | 50.41173 | 30.91250 | 2946 ft | 226 kts | 359° |
| 2026-04-29 06:36 | 50.42824 | 30.91325 | 3324 ft | 244 kts | 359° |
| 2026-04-29 06:36 | 50.44539 | 30.91403 | 4065 ft | 249 kts | 359° |
| 2026-04-29 06:37 | 50.46281 | 30.91485 | 4867 ft | 252 kts | 359° |
| 2026-04-29 06:37 | 50.48041 | 30.91552 | 5676 ft | 254 kts | 356° |
| 2026-04-29 06:37 | 50.49757 | 30.90929 | 6446 ft | 255 kts | 332° |
| 2026-04-29 06:37 | 50.51126 | 30.89197 | 7148 ft | 257 kts | 307° |
| 2026-04-29 06:38 | 50.51871 | 30.86648 | 7817 ft | 261 kts | 281° |
| 2026-04-29 06:38 | 50.52078 | 30.83790 | 8537 ft | 265 kts | 277° |
| 2026-04-29 06:38 | 50.52250 | 30.80889 | 9270 ft | 267 kts | 277° |
| 2026-04-29 06:38 | 50.52424 | 30.77969 | 10001 ft | 270 kts | 277° |
| 2026-04-29 06:39 | 50.52604 | 30.75006 | 10406 ft | 285 kts | 277° |
| 2026-04-29 06:39 | 50.52805 | 30.71758 | 10531 ft | 306 kts | 277° |
| 2026-04-29 06:39 | 50.53016 | 30.68325 | 10672 ft | 325 kts | 276° |
| 2026-04-29 06:39 | 50.53234 | 30.64706 | 10995 ft | 337 kts | 276° |
| 2026-04-29 06:40 | 50.53457 | 30.61009 | 11551 ft | 342 kts | 276° |
| 2026-04-29 06:40 | 50.53679 | 30.57316 | 12172 ft | 345 kts | 276° |
| 2026-04-29 06:40 | 50.53903 | 30.53550 | 12796 ft | 347 kts | 276° |
| 2026-04-29 06:40 | 50.54128 | 30.49754 | 13410 ft | 350 kts | 276° |
| 2026-04-29 06:41 | 50.54354 | 30.45911 | 14031 ft | 353 kts | 276° |
| 2026-04-29 06:41 | 50.54580 | 30.42057 | 14567 ft | 355 kts | 276° |
| 2026-04-29 06:41 | 50.54808 | 30.38180 | 15118 ft | 357 kts | 276° |
| 2026-04-29 06:41 | 50.55038 | 30.34275 | 15670 ft | 359 kts | 276° |
| 2026-04-29 06:42 | 50.55266 | 30.30369 | 16215 ft | 360 kts | 276° |
| 2026-04-29 06:42 | 50.55490 | 30.26479 | 16738 ft | 362 kts | 276° |
| 2026-04-29 06:42 | 50.55716 | 30.22526 | 17252 ft | 364 kts | 276° |
| 2026-04-29 06:42 | 50.55944 | 30.18556 | 17747 ft | 365 kts | 276° |
| 2026-04-29 06:43 | 50.56170 | 30.14565 | 18205 ft | 368 kts | 277° |
| 2026-04-29 06:43 | 50.56392 | 30.10547 | 18634 ft | 370 kts | 277° |
| 2026-04-29 06:43 | 50.56611 | 30.06506 | 19024 ft | 372 kts | 277° |
| 2026-04-29 06:43 | 50.56832 | 30.02445 | 19419 ft | 373 kts | 277° |
| 2026-04-29 06:44 | 50.57053 | 29.98365 | 19801 ft | 375 kts | 277° |
| 2026-04-29 06:44 | 50.57279 | 29.94263 | 20191 ft | 377 kts | 277° |
| 2026-04-29 06:44 | 50.57505 | 29.90142 | 20582 ft | 379 kts | 276° |
| 2026-04-29 06:44 | 50.57730 | 29.85999 | 20973 ft | 381 kts | 276° |
| 2026-04-29 06:45 | 50.57879 | 29.83240 | 21233 ft | 382 kts | 276° |
| 2026-04-29 06:45 | 50.58101 | 29.79052 | 21600 ft | 384 kts | 276° |
| 2026-04-29 06:45 | 50.58322 | 29.74867 | 22113 ft | 383 kts | 276° |
| 2026-04-29 06:45 | 50.58542 | 29.70688 | 22576 ft | 384 kts | 276° |
| 2026-04-29 06:46 | 50.58763 | 29.66487 | 22991 ft | 385 kts | 276° |
| 2026-04-29 06:46 | 50.58984 | 29.62269 | 23315 ft | 389 kts | 276° |
| 2026-04-29 06:46 | 50.59205 | 29.58014 | 23657 ft | 391 kts | 276° |
| 2026-04-29 06:46 | 50.59425 | 29.53734 | 23986 ft | 393 kts | 276° |
| 2026-04-29 06:47 | 50.59645 | 29.49421 | 24269 ft | 396 kts | 276° |
| 2026-04-29 06:47 | 50.59861 | 29.45103 | 24546 ft | 398 kts | 276° |
| 2026-04-29 06:47 | 50.60077 | 29.40751 | 24821 ft | 400 kts | 276° |
| 2026-04-29 06:47 | 50.60289 | 29.36425 | 25089 ft | 402 kts | 276° |
| 2026-04-29 06:48 | 50.60444 | 29.32019 | 25356 ft | 405 kts | 271° |
| 2026-04-29 06:48 | 50.60191 | 29.27574 | 25607 ft | 410 kts | 262° |
| 2026-04-29 06:48 | 50.59468 | 29.23222 | 25853 ft | 415 kts | 253° |
| 2026-04-29 06:48 | 50.58396 | 29.18973 | 26106 ft | 418 kts | 251° |
| 2026-04-29 06:49 | 50.57305 | 29.14720 | 26373 ft | 420 kts | 251° |
| 2026-04-29 06:49 | 50.56213 | 29.10445 | 26627 ft | 422 kts | 251° |
| 2026-04-29 06:49 | 50.55115 | 29.06137 | 26859 ft | 425 kts | 251° |
| 2026-04-29 06:49 | 50.54014 | 29.01806 | 27056 ft | 428 kts | 251° |
| 2026-04-29 06:50 | 50.52908 | 28.97455 | 27307 ft | 429 kts | 251° |
| 2026-04-29 06:50 | 50.51799 | 28.93107 | 27588 ft | 429 kts | 251° |
| 2026-04-29 06:50 | 50.50695 | 28.88802 | 27812 ft | 430 kts | 251° |
| 2026-04-29 06:50 | 50.49572 | 28.84437 | 28007 ft | 432 kts | 251° |
| 2026-04-29 06:51 | 50.48441 | 28.80060 | 28207 ft | 433 kts | 251° |
| 2026-04-29 06:51 | 50.47304 | 28.75670 | 28381 ft | 435 kts | 251° |
| 2026-04-29 06:51 | 50.46157 | 28.71271 | 28566 ft | 437 kts | 250° |
| 2026-04-29 06:51 | 50.44738 | 28.67040 | 28773 ft | 440 kts | 241° |
| 2026-04-29 06:52 | 50.43075 | 28.63000 | 29005 ft | 441 kts | 241° |
| 2026-04-29 06:52 | 50.41408 | 28.58968 | 29237 ft | 440 kts | 241° |
| 2026-04-29 06:52 | 50.39739 | 28.54929 | 29438 ft | 440 kts | 241° |
| 2026-04-29 06:52 | 50.38091 | 28.50941 | 29756 ft | 437 kts | 241° |
| 2026-04-29 06:53 | 50.36425 | 28.46916 | 30052 ft | 436 kts | 241° |
| 2026-04-29 06:53 | 50.34796 | 28.42982 | 30283 ft | 435 kts | 242° |
| 2026-04-29 06:53 | 50.33150 | 28.39009 | 30463 ft | 435 kts | 241° |
| 2026-04-29 06:53 | 50.31503 | 28.35037 | 30619 ft | 435 kts | 241° |
| 2026-04-29 06:54 | 50.29847 | 28.31046 | 30769 ft | 436 kts | 241° |
| 2026-04-29 06:54 | 50.28207 | 28.27098 | 30922 ft | 436 kts | 241° |
| 2026-04-29 06:54 | 50.26548 | 28.23114 | 31070 ft | 436 kts | 241° |
| 2026-04-29 06:54 | 50.24877 | 28.19112 | 31218 ft | 437 kts | 241° |
| 2026-04-29 06:55 | 50.23222 | 28.15169 | 31366 ft | 436 kts | 241° |
| 2026-04-29 06:55 | 50.21557 | 28.11215 | 31620 ft | 434 kts | 241° |
| 2026-04-29 06:55 | 50.19897 | 28.07274 | 31802 ft | 433 kts | 241° |
| 2026-04-29 06:55 | 50.18251 | 28.03367 | 31955 ft | 434 kts | 241° |
| 2026-04-29 06:56 | 50.16578 | 27.99406 | 32101 ft | 435 kts | 241° |
| 2026-04-29 06:56 | 50.14926 | 27.95494 | 32243 ft | 435 kts | 241° |
| 2026-04-29 06:56 | 50.13254 | 27.91533 | 32385 ft | 436 kts | 241° |
| 2026-04-29 06:56 | 50.11589 | 27.87584 | 32530 ft | 436 kts | 241° |
| 2026-04-29 06:57 | 50.09918 | 27.83634 | 32670 ft | 437 kts | 240° |
| 2026-04-29 06:57 | 50.08241 | 27.79684 | 32805 ft | 438 kts | 240° |
| 2026-04-29 06:57 | 50.06575 | 27.75766 | 32945 ft | 438 kts | 240° |
| 2026-04-29 06:57 | 50.04883 | 27.71793 | 33078 ft | 439 kts | 240° |
| 2026-04-29 06:58 | 50.03211 | 27.67869 | 33217 ft | 439 kts | 240° |
| 2026-04-29 06:58 | 50.01519 | 27.63899 | 33356 ft | 440 kts | 240° |
| 2026-04-29 06:58 | 49.99816 | 27.59910 | 33490 ft | 440 kts | 240° |
| 2026-04-29 06:58 | 49.98131 | 27.55985 | 33626 ft | 441 kts | 240° |
| 2026-04-29 06:59 | 49.96425 | 27.52014 | 33760 ft | 441 kts | 240° |
| 2026-04-29 06:59 | 49.94623 | 27.48132 | 33896 ft | 444 kts | 233° |
| 2026-04-29 06:59 | 49.92549 | 27.44546 | 34043 ft | 446 kts | 231° |
| 2026-04-29 06:59 | 49.90485 | 27.41028 | 34164 ft | 445 kts | 231° |
| 2026-04-29 07:00 | 49.88398 | 27.37476 | 34265 ft | 445 kts | 231° |
| 2026-04-29 07:00 | 49.84238 | 27.30406 | 34280 ft | 443 kts | 232° |
| 2026-04-29 07:01 | 49.80083 | 27.23338 | 34279 ft | 443 kts | 231° |
| 2026-04-29 07:01 | 49.75918 | 27.16282 | 34283 ft | 444 kts | 232° |
| 2026-04-29 07:02 | 49.71779 | 27.09288 | 34283 ft | 442 kts | 232° |
| 2026-04-29 07:02 | 49.67619 | 27.02283 | 34285 ft | 441 kts | 232° |
| 2026-04-29 07:03 | 49.63471 | 26.95306 | 34286 ft | 441 kts | 232° |
| 2026-04-29 07:03 | 49.59333 | 26.88383 | 34283 ft | 441 kts | 232° |
| 2026-04-29 07:04 | 49.55170 | 26.81424 | 34267 ft | 440 kts | 232° |
| 2026-04-29 07:04 | 49.51011 | 26.74506 | 34288 ft | 439 kts | 232° |
| 2026-04-29 07:05 | 49.46861 | 26.67625 | 34297 ft | 439 kts | 232° |
| 2026-04-29 07:05 | 49.42724 | 26.60767 | 34304 ft | 439 kts | 232° |
| 2026-04-29 07:06 | 49.38583 | 26.53926 | 34285 ft | 439 kts | 233° |
| 2026-04-29 07:06 | 49.34432 | 26.47065 | 34311 ft | 439 kts | 233° |
| 2026-04-29 07:07 | 49.30256 | 26.40181 | 34316 ft | 439 kts | 233° |
| 2026-04-29 07:07 | 49.26097 | 26.33357 | 34314 ft | 439 kts | 232° |
| 2026-04-29 07:08 | 49.21930 | 26.26551 | 34267 ft | 439 kts | 232° |
| 2026-04-29 07:08 | 49.17767 | 26.19765 | 34308 ft | 437 kts | 232° |
| 2026-04-29 07:09 | 49.13615 | 26.13014 | 34319 ft | 436 kts | 232° |
| 2026-04-29 07:09 | 49.09458 | 26.06272 | 34322 ft | 435 kts | 232° |
| 2026-04-29 07:10 | 49.05322 | 25.99573 | 34323 ft | 435 kts | 232° |
| 2026-04-29 07:10 | 49.01152 | 25.92842 | 34312 ft | 433 kts | 233° |
| 2026-04-29 07:11 | 48.97029 | 25.86207 | 34317 ft | 433 kts | 233° |
| 2026-04-29 07:11 | 48.92895 | 25.79575 | 34317 ft | 432 kts | 233° |
| 2026-04-29 07:12 | 48.88736 | 25.72919 | 34320 ft | 432 kts | 233° |
| 2026-04-29 07:12 | 48.84616 | 25.66335 | 34306 ft | 432 kts | 233° |
| 2026-04-29 07:13 | 48.80471 | 25.59731 | 34313 ft | 431 kts | 233° |
| 2026-04-29 07:13 | 48.76353 | 25.53189 | 34312 ft | 431 kts | 233° |
| 2026-04-29 07:14 | 48.72195 | 25.46590 | 34319 ft | 431 kts | 233° |
| 2026-04-29 07:14 | 48.68071 | 25.40069 | 34291 ft | 431 kts | 234° |
| 2026-04-29 07:15 | 48.63912 | 25.33509 | 34302 ft | 431 kts | 233° |
| 2026-04-29 07:15 | 48.59761 | 25.26974 | 34307 ft | 431 kts | 233° |
| 2026-04-29 07:16 | 48.55624 | 25.20477 | 34309 ft | 431 kts | 233° |
| 2026-04-29 07:16 | 48.51455 | 25.13954 | 34270 ft | 430 kts | 233° |
| 2026-04-29 07:17 | 48.47306 | 25.07480 | 34299 ft | 430 kts | 233° |
| 2026-04-29 07:17 | 48.43146 | 25.00992 | 34305 ft | 430 kts | 233° |
| 2026-04-29 07:18 | 48.38977 | 24.94521 | 34308 ft | 430 kts | 233° |
| 2026-04-29 07:18 | 48.34836 | 24.88102 | 34313 ft | 430 kts | 233° |
| 2026-04-29 07:19 | 48.30680 | 24.81672 | 34312 ft | 430 kts | 233° |
| 2026-04-29 07:19 | 48.26490 | 24.75219 | 34309 ft | 430 kts | 233° |
| 2026-04-29 07:20 | 48.22343 | 24.68845 | 34310 ft | 430 kts | 233° |
| 2026-04-29 07:20 | 48.18151 | 24.62411 | 34312 ft | 431 kts | 233° |
| 2026-04-29 07:21 | 48.13967 | 24.56004 | 34295 ft | 430 kts | 233° |
| 2026-04-29 07:21 | 48.09802 | 24.49655 | 34293 ft | 429 kts | 233° |
| 2026-04-29 07:22 | 48.05597 | 24.43265 | 34293 ft | 429 kts | 233° |
| 2026-04-29 07:22 | 48.01436 | 24.36938 | 34279 ft | 428 kts | 233° |
| 2026-04-29 07:23 | 47.97253 | 24.30594 | 34265 ft | 427 kts | 233° |
| 2026-04-29 07:23 | 47.93086 | 24.24293 | 34261 ft | 426 kts | 233° |
| 2026-04-29 07:24 | 47.88658 | 24.18348 | 34254 ft | 434 kts | 226° |
| 2026-04-29 07:24 | 47.83936 | 24.12839 | 34249 ft | 434 kts | 226° |
| 2026-04-29 07:25 | 47.79190 | 24.07319 | 34233 ft | 433 kts | 227° |
| 2026-04-29 07:25 | 47.74443 | 24.01809 | 34242 ft | 432 kts | 226° |
| 2026-04-29 07:26 | 47.69728 | 23.96347 | 34237 ft | 431 kts | 226° |
| 2026-04-29 07:26 | 47.64981 | 23.90858 | 34225 ft | 431 kts | 226° |
| 2026-04-29 07:27 | 47.60287 | 23.85448 | 34207 ft | 429 kts | 227° |
| 2026-04-29 07:27 | 47.55587 | 23.80039 | 34219 ft | 428 kts | 227° |
| 2026-04-29 07:28 | 47.50902 | 23.74656 | 34213 ft | 427 kts | 227° |
| 2026-04-29 07:28 | 47.46201 | 23.69276 | 34160 ft | 426 kts | 227° |
| 2026-04-29 07:29 | 47.41537 | 23.63947 | 34185 ft | 425 kts | 227° |
| 2026-04-29 07:29 | 47.36858 | 23.58612 | 34196 ft | 424 kts | 227° |
| 2026-04-29 07:30 | 47.31955 | 23.53698 | 34205 ft | 432 kts | 220° |
| 2026-04-29 07:30 | 47.26815 | 23.49156 | 34167 ft | 431 kts | 220° |
| 2026-04-29 07:31 | 47.19097 | 23.42355 | 34202 ft | 430 kts | 220° |
| 2026-04-29 07:31 | 47.13990 | 23.37857 | 34205 ft | 429 kts | 220° |
| 2026-04-29 07:32 | 47.08847 | 23.33344 | 34168 ft | 429 kts | 221° |
| 2026-04-29 07:32 | 47.03744 | 23.28878 | 34188 ft | 428 kts | 221° |
| 2026-04-29 07:33 | 46.98616 | 23.24405 | 34198 ft | 428 kts | 221° |
| 2026-04-29 07:33 | 46.93507 | 23.19947 | 34209 ft | 427 kts | 221° |
| 2026-04-29 07:34 | 46.88402 | 23.15502 | 34179 ft | 427 kts | 221° |
| 2026-04-29 07:34 | 46.83312 | 23.11078 | 34182 ft | 428 kts | 221° |
| 2026-04-29 07:35 | 46.78180 | 23.06634 | 34199 ft | 428 kts | 221° |
| 2026-04-29 07:35 | 46.72999 | 23.02371 | 34209 ft | 436 kts | 215° |
| 2026-04-29 07:36 | 46.67463 | 22.98671 | 34182 ft | 439 kts | 216° |
| 2026-04-29 07:36 | 46.61898 | 22.94967 | 34185 ft | 441 kts | 215° |
| 2026-04-29 07:37 | 46.56312 | 22.91251 | 34188 ft | 443 kts | 215° |
| 2026-04-29 07:37 | 46.51074 | 22.86915 | 34186 ft | 424 kts | 227° |
| 2026-04-29 07:38 | 46.46360 | 22.81792 | 34185 ft | 426 kts | 227° |
| 2026-04-29 07:38 | 46.41607 | 22.76653 | 34183 ft | 426 kts | 227° |
| 2026-04-29 07:39 | 46.36829 | 22.71511 | 34184 ft | 427 kts | 227° |
| 2026-04-29 07:39 | 46.32080 | 22.66405 | 34146 ft | 428 kts | 227° |
| 2026-04-29 07:40 | 46.27285 | 22.61261 | 34149 ft | 430 kts | 227° |
| 2026-04-29 07:40 | 46.22459 | 22.56093 | 34155 ft | 431 kts | 227° |
| 2026-04-29 07:41 | 46.17659 | 22.50958 | 34145 ft | 431 kts | 227° |
| 2026-04-29 07:41 | 46.12874 | 22.45875 | 34173 ft | 427 kts | 226° |
| 2026-04-29 07:42 | 46.08895 | 22.41647 | 34180 ft | 425 kts | 226° |
| 2026-04-29 07:42 | 46.03328 | 22.35791 | 34181 ft | 426 kts | 225° |
| 2026-04-29 07:43 | 45.99208 | 22.31847 | 34133 ft | 429 kts | 222° |
| 2026-04-29 07:43 | 45.94161 | 22.27304 | 34188 ft | 426 kts | 222° |
| 2026-04-29 07:44 | 45.89161 | 22.22805 | 34184 ft | 422 kts | 222° |
| 2026-04-29 07:44 | 45.84241 | 22.18273 | 34176 ft | 420 kts | 223° |
| 2026-04-29 07:45 | 45.79343 | 22.13722 | 34143 ft | 418 kts | 223° |
| 2026-04-29 07:45 | 45.74468 | 22.09231 | 34157 ft | 418 kts | 223° |
| 2026-04-29 07:46 | 45.69567 | 22.04746 | 34162 ft | 417 kts | 223° |
| 2026-04-29 07:46 | 45.64700 | 22.00310 | 34162 ft | 417 kts | 223° |
| 2026-04-29 07:47 | 45.59805 | 21.95839 | 34114 ft | 418 kts | 223° |
| 2026-04-29 07:47 | 45.54901 | 21.91362 | 34117 ft | 419 kts | 223° |
| 2026-04-29 07:48 | 45.49976 | 21.86881 | 34123 ft | 420 kts | 223° |
| 2026-04-29 07:48 | 45.45030 | 21.82399 | 34111 ft | 422 kts | 222° |
| 2026-04-29 07:49 | 45.40071 | 21.77911 | 34132 ft | 425 kts | 222° |
| 2026-04-29 07:49 | 45.35046 | 21.73387 | 34138 ft | 426 kts | 222° |
| 2026-04-29 07:50 | 45.30070 | 21.68911 | 34143 ft | 425 kts | 222° |
| 2026-04-29 07:50 | 45.25056 | 21.64396 | 34115 ft | 425 kts | 222° |
| 2026-04-29 07:51 | 45.20078 | 21.59919 | 34118 ft | 425 kts | 222° |
| 2026-04-29 07:51 | 45.15094 | 21.55458 | 34143 ft | 425 kts | 222° |
| 2026-04-29 07:52 | 45.10097 | 21.51004 | 34117 ft | 425 kts | 221° |
| 2026-04-29 07:52 | 45.05095 | 21.46545 | 34129 ft | 425 kts | 221° |
| 2026-04-29 07:53 | 45.00087 | 21.42084 | 34134 ft | 426 kts | 221° |
| 2026-04-29 07:53 | 44.95086 | 21.37592 | 34115 ft | 425 kts | 222° |
| 2026-04-29 07:54 | 44.90124 | 21.33043 | 34102 ft | 426 kts | 222° |
| 2026-04-29 07:54 | 44.85152 | 21.28475 | 34115 ft | 427 kts | 222° |
| 2026-04-29 07:55 | 44.80198 | 21.23959 | 34119 ft | 427 kts | 222° |
| 2026-04-29 07:55 | 44.75192 | 21.19431 | 34141 ft | 427 kts | 222° |
| 2026-04-29 07:56 | 44.70172 | 21.14900 | 34140 ft | 427 kts | 222° |
| 2026-04-29 07:56 | 44.65202 | 21.10412 | 34141 ft | 427 kts | 222° |
| 2026-04-29 07:57 | 44.60193 | 21.05887 | 34139 ft | 427 kts | 222° |
| 2026-04-29 07:57 | 44.55216 | 21.01401 | 34113 ft | 427 kts | 221° |
| 2026-04-29 07:58 | 44.50185 | 20.96890 | 34119 ft | 428 kts | 221° |
| 2026-04-29 07:58 | 44.45181 | 20.92412 | 34126 ft | 428 kts | 221° |
| 2026-04-29 07:59 | 44.40163 | 20.87918 | 34098 ft | 428 kts | 221° |
| 2026-04-29 07:59 | 44.35170 | 20.83465 | 34113 ft | 428 kts | 220° |
| 2026-04-29 08:00 | 44.30106 | 20.79007 | 34129 ft | 430 kts | 219° |
| 2026-04-29 08:00 | 44.24972 | 20.74709 | 34131 ft | 431 kts | 219° |
| 2026-04-29 08:01 | 44.19832 | 20.70488 | 34118 ft | 431 kts | 218° |
| 2026-04-29 08:01 | 44.14668 | 20.66231 | 34131 ft | 431 kts | 218° |
| 2026-04-29 08:02 | 44.09519 | 20.61932 | 34145 ft | 431 kts | 219° |
| 2026-04-29 08:02 | 44.04365 | 20.57641 | 34129 ft | 431 kts | 218° |
| 2026-04-29 08:03 | 43.99207 | 20.53367 | 34146 ft | 432 kts | 218° |
| 2026-04-29 08:03 | 43.94036 | 20.49093 | 34157 ft | 432 kts | 218° |
| 2026-04-29 08:04 | 43.88914 | 20.44747 | 34144 ft | 429 kts | 220° |
| 2026-04-29 08:04 | 43.84054 | 20.39980 | 34151 ft | 427 kts | 223° |
| 2026-04-29 08:05 | 43.79306 | 20.35115 | 34146 ft | 427 kts | 223° |
| 2026-04-29 08:05 | 43.74487 | 20.30282 | 34152 ft | 428 kts | 222° |
| 2026-04-29 08:06 | 43.69619 | 20.25515 | 34134 ft | 429 kts | 221° |
| 2026-04-29 08:06 | 43.64728 | 20.20766 | 34143 ft | 429 kts | 221° |
| 2026-04-29 08:07 | 43.59856 | 20.15999 | 34139 ft | 429 kts | 222° |
| 2026-04-29 08:07 | 43.54976 | 20.11231 | 34131 ft | 429 kts | 221° |
| 2026-04-29 08:08 | 43.50102 | 20.06472 | 34134 ft | 429 kts | 221° |
| 2026-04-29 08:08 | 43.45244 | 20.01745 | 34139 ft | 430 kts | 221° |
| 2026-04-29 08:09 | 43.40366 | 19.97029 | 34125 ft | 430 kts | 221° |
| 2026-04-29 08:09 | 43.35473 | 19.92297 | 34131 ft | 430 kts | 221° |
| 2026-04-29 08:10 | 43.33033 | 19.89931 | 33893 ft | 428 kts | 221° |
| 2026-04-29 08:10 | 43.30596 | 19.87568 | 33072 ft | 430 kts | 221° |
| 2026-04-29 08:10 | 43.28149 | 19.85204 | 32211 ft | 432 kts | 221° |
| 2026-04-29 08:10 | 43.25679 | 19.82825 | 31339 ft | 435 kts | 221° |
| 2026-04-29 08:11 | 43.23187 | 19.80426 | 30444 ft | 438 kts | 220° |
| 2026-04-29 08:11 | 43.20682 | 19.78015 | 29502 ft | 441 kts | 220° |
| 2026-04-29 08:11 | 43.18176 | 19.75607 | 28853 ft | 437 kts | 220° |
| 2026-04-29 08:11 | 43.15721 | 19.73251 | 28216 ft | 433 kts | 220° |
| 2026-04-29 08:12 | 43.13260 | 19.70896 | 27539 ft | 429 kts | 220° |
| 2026-04-29 08:12 | 43.10810 | 19.68558 | 26897 ft | 426 kts | 219° |
| 2026-04-29 08:12 | 43.08391 | 19.66251 | 26282 ft | 422 kts | 219° |
| 2026-04-29 08:12 | 43.05988 | 19.63955 | 25663 ft | 419 kts | 219° |
| 2026-04-29 08:13 | 43.03637 | 19.61719 | 25084 ft | 416 kts | 217° |
| 2026-04-29 08:13 | 43.01098 | 19.59808 | 24492 ft | 418 kts | 208° |
| 2026-04-29 08:13 | 42.98349 | 19.58494 | 23925 ft | 420 kts | 198° |
| 2026-04-29 08:13 | 42.95481 | 19.57727 | 23268 ft | 419 kts | 195° |
| 2026-04-29 08:14 | 42.92714 | 19.56624 | 22584 ft | 409 kts | 206° |
| 2026-04-29 08:14 | 42.90128 | 19.55094 | 21912 ft | 404 kts | 208° |
| 2026-04-29 08:14 | 42.87565 | 19.53569 | 21274 ft | 400 kts | 207° |
| 2026-04-29 08:14 | 42.85017 | 19.52073 | 20637 ft | 396 kts | 207° |
| 2026-04-29 08:15 | 42.82494 | 19.50607 | 20004 ft | 392 kts | 207° |
| 2026-04-29 08:15 | 42.79988 | 19.49160 | 19387 ft | 389 kts | 207° |
| 2026-04-29 08:15 | 42.77511 | 19.47735 | 18825 ft | 386 kts | 207° |
| 2026-04-29 08:15 | 42.75042 | 19.46319 | 18254 ft | 383 kts | 207° |
| 2026-04-29 08:16 | 42.72600 | 19.44922 | 17587 ft | 379 kts | 206° |
| 2026-04-29 08:16 | 42.70212 | 19.43552 | 16957 ft | 376 kts | 206° |
| 2026-04-29 08:16 | 42.67812 | 19.42171 | 16399 ft | 373 kts | 206° |
| 2026-04-29 08:16 | 42.65432 | 19.40799 | 15846 ft | 370 kts | 206° |
| 2026-04-29 08:17 | 42.63068 | 19.39440 | 15328 ft | 367 kts | 206° |
| 2026-04-29 08:17 | 42.60720 | 19.38094 | 14802 ft | 365 kts | 206° |
| 2026-04-29 08:17 | 42.59933 | 19.37643 | 14630 ft | 364 kts | 206° |
| 2026-04-29 08:19 | 42.48265 | 19.30954 | 11956 ft | 351 kts | 205° |
| 2026-04-29 08:19 | 42.46043 | 19.29687 | 11702 ft | 340 kts | 205° |
| 2026-04-29 08:19 | 42.43914 | 19.28480 | 11579 ft | 325 kts | 205° |
| 2026-04-29 08:20 | 42.41871 | 19.27320 | 11447 ft | 312 kts | 205° |
| 2026-04-29 08:20 | 42.39913 | 19.26207 | 11318 ft | 299 kts | 205° |
| 2026-04-29 08:20 | 42.37974 | 19.25233 | 11187 ft | 297 kts | 198° |
| 2026-04-29 08:20 | 42.35980 | 19.24508 | 11064 ft | 296 kts | 197° |
| 2026-04-29 08:21 | 42.33985 | 19.23786 | 10935 ft | 296 kts | 197° |
| 2026-04-29 08:21 | 42.31997 | 19.23067 | 10820 ft | 295 kts | 197° |
| 2026-04-29 08:21 | 42.30014 | 19.22352 | 10698 ft | 295 kts | 197° |
| 2026-04-29 08:21 | 42.28034 | 19.21638 | 10573 ft | 294 kts | 197° |
| 2026-04-29 08:22 | 42.26070 | 19.20932 | 10451 ft | 287 kts | 197° |
| 2026-04-29 08:22 | 42.24180 | 19.20255 | 10317 ft | 275 kts | 197° |
| 2026-04-29 08:22 | 42.22374 | 19.19608 | 10209 ft | 270 kts | 197° |
| 2026-04-29 08:22 | 42.20562 | 19.18956 | 10097 ft | 269 kts | 198° |
| 2026-04-29 08:23 | 42.18755 | 19.18306 | 9957 ft | 268 kts | 197° |
| 2026-04-29 08:23 | 42.16955 | 19.17658 | 9613 ft | 265 kts | 197° |
| 2026-04-29 08:23 | 42.15169 | 19.17017 | 9214 ft | 264 kts | 197° |
| 2026-04-29 08:23 | 42.13424 | 19.16393 | 8974 ft | 258 kts | 197° |
| 2026-04-29 08:24 | 42.11687 | 19.15771 | 8980 ft | 261 kts | 197° |
| 2026-04-29 08:24 | 42.09929 | 19.15139 | 8981 ft | 262 kts | 197° |
| 2026-04-29 08:24 | 42.08210 | 19.14353 | 8976 ft | 260 kts | 210° |
| 2026-04-29 08:24 | 42.06742 | 19.12960 | 8977 ft | 257 kts | 226° |
| 2026-04-29 08:25 | 42.05652 | 19.11073 | 8981 ft | 255 kts | 243° |
| 2026-04-29 08:25 | 42.04959 | 19.08884 | 8972 ft | 254 kts | 250° |
| 2026-04-29 08:25 | 42.04325 | 19.06679 | 8633 ft | 252 kts | 250° |
| 2026-04-29 08:25 | 42.03687 | 19.04494 | 8250 ft | 251 kts | 249° |
| 2026-04-29 08:26 | 42.03050 | 19.02316 | 7860 ft | 250 kts | 249° |
| 2026-04-29 08:26 | 42.02415 | 19.00145 | 7459 ft | 249 kts | 248° |
| 2026-04-29 08:26 | 42.01808 | 18.97975 | 7101 ft | 247 kts | 255° |
| 2026-04-29 08:26 | 42.01775 | 18.95691 | 6729 ft | 247 kts | 284° |
| 2026-04-29 08:27 | 42.02594 | 18.93671 | 6323 ft | 251 kts | 314° |
| 2026-04-29 08:27 | 42.04067 | 18.92428 | 5901 ft | 254 kts | 338° |
| 2026-04-29 08:27 | 42.05718 | 18.91575 | 5454 ft | 255 kts | 334° |
| 2026-04-29 08:27 | 42.07331 | 18.90620 | 5145 ft | 252 kts | 336° |
| 2026-04-29 08:28 | 42.08954 | 18.89753 | 4794 ft | 250 kts | 338° |
| 2026-04-29 08:28 | 42.10585 | 18.88928 | 4408 ft | 250 kts | 338° |
| 2026-04-29 08:28 | 42.12212 | 18.88106 | 4055 ft | 249 kts | 338° |
| 2026-04-29 08:28 | 42.13807 | 18.87296 | 3993 ft | 250 kts | 338° |
| 2026-04-29 08:29 | 42.15439 | 18.86467 | 3996 ft | 248 kts | 338° |
| 2026-04-29 08:29 | 42.17042 | 18.85652 | 3993 ft | 245 kts | 339° |
| 2026-04-29 08:29 | 42.18622 | 18.84849 | 3788 ft | 238 kts | 339° |
| 2026-04-29 08:29 | 42.20130 | 18.84081 | 3627 ft | 226 kts | 338° |
| 2026-04-29 08:30 | 42.21592 | 18.83337 | 3359 ft | 222 kts | 339° |
| 2026-04-29 08:30 | 42.24303 | 18.81956 | 3099 ft | 196 kts | 339° |
| 2026-04-29 08:30 | 42.25555 | 18.81317 | 2889 ft | 190 kts | 340° |
| 2026-04-29 08:31 | 42.26758 | 18.80703 | 2747 ft | 178 kts | 340° |
| 2026-04-29 08:31 | 42.27902 | 18.80120 | 2662 ft | 175 kts | 339° |
| 2026-04-29 08:31 | 42.29025 | 18.79545 | 2622 ft | 173 kts | 339° |
| 2026-04-29 08:31 | 42.30158 | 18.78967 | 2474 ft | 171 kts | 340° |
| 2026-04-29 08:32 | 42.31234 | 18.78417 | 2225 ft | 161 kts | 340° |
| 2026-04-29 08:32 | 42.32275 | 18.77886 | 1995 ft | 159 kts | 339° |
| 2026-04-29 08:32 | 42.33326 | 18.77349 | 1769 ft | 165 kts | 342° |
| 2026-04-29 08:32 | 42.34406 | 18.76795 | 1458 ft | 168 kts | 341° |
| 2026-04-29 08:33 | 42.35507 | 18.76224 | 1141 ft | 166 kts | 340° |
| 2026-04-29 08:33 | 42.36558 | 18.75695 | 908 ft | 157 kts | 341° |
| 2026-04-29 08:33 | 42.37578 | 18.75207 | 592 ft | 154 kts | 339° |
| 2026-04-29 08:33 | 42.38525 | 18.74565 | 338 ft | 151 kts | 327° |
| 2026-04-29 08:34 | 42.39340 | 18.73662 | 129 ft | 152 kts | 318° |
| 2026-04-29 08:34 | 42.40119 | 18.72730 | 39 ft | 145 kts | 318° |
| 2026-04-29 08:34 | 42.40960 | 18.71764 | 576 ft | 165 kts | 321° |
| 2026-04-29 08:34 | 42.41658 | 18.70545 | 1350 ft | 169 kts | 285° |
| 2026-04-29 08:35 | 42.41637 | 18.68958 | 1940 ft | 178 kts | 246° |
| 2026-04-29 08:35 | 42.40989 | 18.67445 | 2242 ft | 195 kts | 229° |
| 2026-04-29 08:35 | 42.40006 | 18.66148 | 2388 ft | 206 kts | 216° |
| 2026-04-29 08:35 | 42.38799 | 18.65042 | 2663 ft | 217 kts | 200° |
| 2026-04-29 08:36 | 42.37351 | 18.64272 | 2999 ft | 229 kts | 198° |
| 2026-04-29 08:36 | 42.35857 | 18.63509 | 3777 ft | 229 kts | 200° |
| 2026-04-29 08:36 | 42.34357 | 18.62742 | 4537 ft | 231 kts | 200° |
| 2026-04-29 08:36 | 42.32846 | 18.61971 | 5229 ft | 234 kts | 201° |
| 2026-04-29 08:37 | 42.31317 | 18.61197 | 5827 ft | 236 kts | 200° |
| 2026-04-29 08:37 | 42.29702 | 18.60845 | 5975 ft | 238 kts | 178° |
| 2026-04-29 08:37 | 42.28083 | 18.61345 | 6001 ft | 240 kts | 163° |
| 2026-04-29 08:37 | 42.26497 | 18.62039 | 6005 ft | 240 kts | 164° |
| 2026-04-29 08:38 | 42.24907 | 18.62730 | 6009 ft | 239 kts | 165° |
| 2026-04-29 08:38 | 42.23326 | 18.63416 | 6007 ft | 239 kts | 164° |
| 2026-04-29 08:38 | 42.21746 | 18.64102 | 6009 ft | 239 kts | 164° |
| 2026-04-29 08:38 | 42.20153 | 18.64787 | 6009 ft | 240 kts | 164° |
| 2026-04-29 08:39 | 42.18559 | 18.65471 | 6001 ft | 240 kts | 165° |
| 2026-04-29 08:39 | 42.16994 | 18.66140 | 5999 ft | 238 kts | 165° |
| 2026-04-29 08:39 | 42.15415 | 18.66816 | 6000 ft | 238 kts | 165° |
| 2026-04-29 08:39 | 42.13849 | 18.67486 | 6002 ft | 237 kts | 165° |
| 2026-04-29 08:40 | 42.12271 | 18.68159 | 6003 ft | 238 kts | 165° |
| 2026-04-29 08:40 | 42.10691 | 18.68833 | 6001 ft | 238 kts | 164° |
| 2026-04-29 08:40 | 42.09100 | 18.69509 | 6002 ft | 241 kts | 165° |
| 2026-04-29 08:41 | 42.06262 | 18.77699 | 6010 ft | 253 kts | 66° |
| 2026-04-29 08:42 | 42.07011 | 18.79835 | 6005 ft | 253 kts | 65° |
| 2026-04-29 08:42 | 42.07754 | 18.81948 | 6007 ft | 253 kts | 65° |
| 2026-04-29 08:42 | 42.08557 | 18.84047 | 6007 ft | 253 kts | 55° |
| 2026-04-29 08:42 | 42.09752 | 18.85770 | 6008 ft | 252 kts | 36° |
| 2026-04-29 08:43 | 42.11288 | 18.86875 | 6014 ft | 250 kts | 16° |
| 2026-04-29 08:43 | 42.12988 | 18.87257 | 5911 ft | 244 kts | 357° |
| 2026-04-29 08:43 | 42.14594 | 18.86902 | 5727 ft | 229 kts | 338° |
| 2026-04-29 08:43 | 42.16068 | 18.86157 | 5414 ft | 224 kts | 337° |
| 2026-04-29 08:44 | 42.17523 | 18.85409 | 5052 ft | 223 kts | 337° |
| 2026-04-29 08:44 | 42.18973 | 18.84669 | 4728 ft | 222 kts | 338° |
| 2026-04-29 08:44 | 42.20417 | 18.83934 | 4385 ft | 221 kts | 338° |
| 2026-04-29 08:44 | 42.21850 | 18.83204 | 4059 ft | 218 kts | 339° |
| 2026-04-29 08:45 | 42.22325 | 18.82962 | 3935 ft | 215 kts | 339° |
| 2026-04-29 08:45 | 42.26067 | 18.81055 | 2992 ft | 190 kts | 339° |